sensor_id;sensor_type;location;lat;lon;timestamp;temperature;humidity
44477;DHT22;30180;44.788;10.366;2023-02-21T00:01:29;16.40;63.70
44477;DHT22;30180;44.788;10.366;2023-02-21T00:04:15;16.40;63.70
44477;DHT22;30180;44.788;10.366;2023-02-21T00:07:01;16.40;63.70
44477;DHT22;30180;44.788;10.366;2023-02-21T00:09:47;16.50;63.70
44477;DHT22;30180;44.788;10.366;2023-02-21T00:12:33;16.40;63.70
44477;DHT22;30180;44.788;10.366;2023-02-21T00:15:19;16.40;63.70
44477;DHT22;30180;44.788;10.366;2023-02-21T00:18:04;16.40;63.70
44477;DHT22;30180;44.788;10.366;2023-02-21T00:20:50;16.40;63.70
44477;DHT22;30180;44.788;10.366;2023-02-21T00:23:37;16.40;63.70
44477;DHT22;30180;44.788;10.366;2023-02-21T00:26:22;16.40;63.70
44477;DHT22;30180;44.788;10.366;2023-02-21T00:29:08;16.40;63.70
44477;DHT22;30180;44.788;10.366;2023-02-21T00:31:54;16.40;63.70
44477;DHT22;30180;44.788;10.366;2023-02-21T00:34:40;16.40;63.70
44477;DHT22;30180;44.788;10.366;2023-02-21T00:37:26;16.40;63.70
44477;DHT22;30180;44.788;10.366;2023-02-21T00:40:14;16.40;63.70
44477;DHT22;30180;44.788;10.366;2023-02-21T00:43:00;16.40;63.70
44477;DHT22;30180;44.788;10.366;2023-02-21T00:45:45;16.40;63.70
44477;DHT22;30180;44.788;10.366;2023-02-21T00:48:31;16.40;63.70
44477;DHT22;30180;44.788;10.366;2023-02-21T00:51:17;16.40;63.70
44477;DHT22;30180;44.788;10.366;2023-02-21T00:54:03;16.40;63.70
44477;DHT22;30180;44.788;10.366;2023-02-21T00:56:50;16.40;63.70
44477;DHT22;30180;44.788;10.366;2023-02-21T00:59:36;16.40;63.70
44477;DHT22;30180;44.788;10.366;2023-02-21T01:02:21;16.40;63.60
44477;DHT22;30180;44.788;10.366;2023-02-21T01:05:07;16.40;63.70
44477;DHT22;30180;44.788;10.366;2023-02-21T01:07:52;16.40;63.70
44477;DHT22;30180;44.788;10.366;2023-02-21T01:10:38;16.40;63.70
44477;DHT22;30180;44.788;10.366;2023-02-21T01:13:25;16.40;63.70
44477;DHT22;30180;44.788;10.366;2023-02-21T01:16:11;16.30;63.60
44477;DHT22;30180;44.788;10.366;2023-02-21T01:18:56;16.40;63.70
44477;DHT22;30180;44.788;10.366;2023-02-21T01:21:42;16.40;63.60
44477;DHT22;30180;44.788;10.366;2023-02-21T01:24:27;16.40;63.60
44477;DHT22;30180;44.788;10.366;2023-02-21T01:27:13;16.40;63.60
44477;DHT22;30180;44.788;10.366;2023-02-21T01:30:00;16.40;63.60
44477;DHT22;30180;44.788;10.366;2023-02-21T01:32:46;16.30;63.60
44477;DHT22;30180;44.788;10.366;2023-02-21T01:35:31;16.30;63.60
44477;DHT22;30180;44.788;10.366;2023-02-21T01:38:17;16.30;63.60
44477;DHT22;30180;44.788;10.366;2023-02-21T01:41:02;16.30;63.60
44477;DHT22;30180;44.788;10.366;2023-02-21T01:43:57;16.30;63.60
44477;DHT22;30180;44.788;10.366;2023-02-21T01:46:44;16.30;63.60
44477;DHT22;30180;44.788;10.366;2023-02-21T01:49:31;16.30;63.60
44477;DHT22;30180;44.788;10.366;2023-02-21T01:52:18;16.30;63.50
44477;DHT22;30180;44.788;10.366;2023-02-21T01:55:05;16.30;63.60
44477;DHT22;30180;44.788;10.366;2023-02-21T01:57:51;16.30;63.60
44477;DHT22;30180;44.788;10.366;2023-02-21T02:00:38;16.30;63.60
44477;DHT22;30180;44.788;10.366;2023-02-21T02:03:26;16.30;63.60
44477;DHT22;30180;44.788;10.366;2023-02-21T02:06:13;16.30;63.60
44477;DHT22;30180;44.788;10.366;2023-02-21T02:09:13;16.30;63.60
44477;DHT22;30180;44.788;10.366;2023-02-21T02:12:13;16.30;63.60
44477;DHT22;30180;44.788;10.366;2023-02-21T02:15:10;16.30;63.60
44477;DHT22;30180;44.788;10.366;2023-02-21T02:17:58;16.30;63.60
44477;DHT22;30180;44.788;10.366;2023-02-21T02:20:46;16.30;63.60
44477;DHT22;30180;44.788;10.366;2023-02-21T02:23:39;16.30;63.60
44477;DHT22;30180;44.788;10.366;2023-02-21T02:29:47;16.30;63.60
44477;DHT22;30180;44.788;10.366;2023-02-21T02:35:12;16.30;63.60
44477;DHT22;30180;44.788;10.366;2023-02-21T02:37:47;16.30;63.60
44477;DHT22;30180;44.788;10.366;2023-02-21T02:40:21;16.30;63.50
44477;DHT22;30180;44.788;10.366;2023-02-21T02:42:59;16.30;63.50
44477;DHT22;30180;44.788;10.366;2023-02-21T02:45:34;16.30;63.50
44477;DHT22;30180;44.788;10.366;2023-02-21T02:48:06;16.30;63.50
44477;DHT22;30180;44.788;10.366;2023-02-21T02:50:40;16.20;63.50
44477;DHT22;30180;44.788;10.366;2023-02-21T02:53:08;16.20;63.50
44477;DHT22;30180;44.788;10.366;2023-02-21T02:55:40;16.30;63.50
44477;DHT22;30180;44.788;10.366;2023-02-21T02:58:11;16.30;63.50
44477;DHT22;30180;44.788;10.366;2023-02-21T03:00:44;16.20;63.50
44477;DHT22;30180;44.788;10.366;2023-02-21T03:03:44;16.20;63.50
44477;DHT22;30180;44.788;10.366;2023-02-21T03:06:29;16.30;63.50
44477;DHT22;30180;44.788;10.366;2023-02-21T03:09:08;16.20;63.50
44477;DHT22;30180;44.788;10.366;2023-02-21T03:11:46;16.20;63.50
44477;DHT22;30180;44.788;10.366;2023-02-21T03:14:18;16.20;63.50
44477;DHT22;30180;44.788;10.366;2023-02-21T03:16:50;16.30;63.50
44477;DHT22;30180;44.788;10.366;2023-02-21T03:19:22;16.20;63.50
44477;DHT22;30180;44.788;10.366;2023-02-21T03:21:55;16.20;63.40
44477;DHT22;30180;44.788;10.366;2023-02-21T03:24:26;16.20;63.40
44477;DHT22;30180;44.788;10.366;2023-02-21T03:26:58;16.20;63.40
44477;DHT22;30180;44.788;10.366;2023-02-21T03:29:27;16.20;63.40
44477;DHT22;30180;44.788;10.366;2023-02-21T03:32:00;16.20;63.40
44477;DHT22;30180;44.788;10.366;2023-02-21T03:34:36;16.20;63.40
44477;DHT22;30180;44.788;10.366;2023-02-21T03:37:07;16.20;63.40
44477;DHT22;30180;44.788;10.366;2023-02-21T03:39:36;16.20;63.40
44477;DHT22;30180;44.788;10.366;2023-02-21T03:42:04;16.20;63.40
44477;DHT22;30180;44.788;10.366;2023-02-21T03:44:32;16.20;63.40
44477;DHT22;30180;44.788;10.366;2023-02-21T03:47:00;16.20;63.40
44477;DHT22;30180;44.788;10.366;2023-02-21T03:49:29;16.20;63.40
44477;DHT22;30180;44.788;10.366;2023-02-21T03:51:57;16.20;63.40
44477;DHT22;30180;44.788;10.366;2023-02-21T03:54:26;16.20;63.40
44477;DHT22;30180;44.788;10.366;2023-02-21T03:56:54;16.20;63.40
44477;DHT22;30180;44.788;10.366;2023-02-21T03:59:23;16.20;63.40
44477;DHT22;30180;44.788;10.366;2023-02-21T04:01:51;16.20;63.40
44477;DHT22;30180;44.788;10.366;2023-02-21T04:04:19;16.20;63.40
44477;DHT22;30180;44.788;10.366;2023-02-21T04:06:47;16.20;63.40
44477;DHT22;30180;44.788;10.366;2023-02-21T04:09:16;16.20;63.40
44477;DHT22;30180;44.788;10.366;2023-02-21T04:11:45;16.20;63.40
44477;DHT22;30180;44.788;10.366;2023-02-21T04:14:14;16.20;63.40
44477;DHT22;30180;44.788;10.366;2023-02-21T04:16:42;16.20;63.40
44477;DHT22;30180;44.788;10.366;2023-02-21T04:19:10;16.20;63.40
44477;DHT22;30180;44.788;10.366;2023-02-21T04:21:38;16.20;63.40
44477;DHT22;30180;44.788;10.366;2023-02-21T04:24:06;16.20;63.40
44477;DHT22;30180;44.788;10.366;2023-02-21T04:26:35;16.20;63.40
44477;DHT22;30180;44.788;10.366;2023-02-21T04:29:04;16.20;63.40
44477;DHT22;30180;44.788;10.366;2023-02-21T04:31:33;16.20;63.50
44477;DHT22;30180;44.788;10.366;2023-02-21T04:34:01;16.20;63.50
44477;DHT22;30180;44.788;10.366;2023-02-21T04:36:38;16.20;63.50
44477;DHT22;30180;44.788;10.366;2023-02-21T04:39:06;16.20;63.50
44477;DHT22;30180;44.788;10.366;2023-02-21T04:41:35;16.20;63.50
44477;DHT22;30180;44.788;10.366;2023-02-21T04:44:04;16.30;63.60
44477;DHT22;30180;44.788;10.366;2023-02-21T04:46:33;16.30;63.60
44477;DHT22;30180;44.788;10.366;2023-02-21T04:49:01;16.30;63.60
44477;DHT22;30180;44.788;10.366;2023-02-21T04:51:30;16.30;63.60
44477;DHT22;30180;44.788;10.366;2023-02-21T04:53:58;16.30;63.60
44477;DHT22;30180;44.788;10.366;2023-02-21T04:56:26;16.30;63.60
44477;DHT22;30180;44.788;10.366;2023-02-21T04:58:55;16.30;63.60
44477;DHT22;30180;44.788;10.366;2023-02-21T05:01:26;16.30;63.60
44477;DHT22;30180;44.788;10.366;2023-02-21T05:03:56;16.30;63.60
44477;DHT22;30180;44.788;10.366;2023-02-21T05:06:26;16.40;63.70
44477;DHT22;30180;44.788;10.366;2023-02-21T05:08:55;16.40;63.70
44477;DHT22;30180;44.788;10.366;2023-02-21T05:11:24;16.40;63.60
44477;DHT22;30180;44.788;10.366;2023-02-21T05:13:52;16.40;63.60
44477;DHT22;30180;44.788;10.366;2023-02-21T05:16:20;16.40;63.70
44477;DHT22;30180;44.788;10.366;2023-02-21T05:18:50;16.40;63.60
44477;DHT22;30180;44.788;10.366;2023-02-21T05:21:19;16.40;63.70
44477;DHT22;30180;44.788;10.366;2023-02-21T05:23:47;16.50;63.70
44477;DHT22;30180;44.788;10.366;2023-02-21T05:26:24;16.50;63.70
44477;DHT22;30180;44.788;10.366;2023-02-21T05:28:53;16.50;63.70
44477;DHT22;30180;44.788;10.366;2023-02-21T05:31:22;16.50;63.70
44477;DHT22;30180;44.788;10.366;2023-02-21T05:33:52;16.50;63.70
44477;DHT22;30180;44.788;10.366;2023-02-21T05:36:20;16.50;63.70
44477;DHT22;30180;44.788;10.366;2023-02-21T05:38:52;16.50;63.70
44477;DHT22;30180;44.788;10.366;2023-02-21T05:41:21;16.60;63.80
44477;DHT22;30180;44.788;10.366;2023-02-21T05:43:50;16.60;63.70
44477;DHT22;30180;44.788;10.366;2023-02-21T05:46:21;16.50;63.70
44477;DHT22;30180;44.788;10.366;2023-02-21T05:48:49;16.60;63.70
44477;DHT22;30180;44.788;10.366;2023-02-21T05:51:19;16.60;64.30
44477;DHT22;30180;44.788;10.366;2023-02-21T05:53:48;16.60;63.70
44477;DHT22;30180;44.788;10.366;2023-02-21T05:56:16;16.60;63.70
44477;DHT22;30180;44.788;10.366;2023-02-21T05:58:45;16.60;63.70
44477;DHT22;30180;44.788;10.366;2023-02-21T06:01:13;16.60;63.70
44477;DHT22;30180;44.788;10.366;2023-02-21T06:03:42;16.60;63.70
44477;DHT22;30180;44.788;10.366;2023-02-21T06:06:10;16.50;63.60
44477;DHT22;30180;44.788;10.366;2023-02-21T06:08:44;16.60;63.70
44477;DHT22;30180;44.788;10.366;2023-02-21T06:11:13;16.60;63.70
44477;DHT22;30180;44.788;10.366;2023-02-21T06:13:42;16.60;63.70
44477;DHT22;30180;44.788;10.366;2023-02-21T06:16:10;16.60;63.70
44477;DHT22;30180;44.788;10.366;2023-02-21T06:18:38;16.60;63.60
44477;DHT22;30180;44.788;10.366;2023-02-21T06:21:06;16.60;63.70
44477;DHT22;30180;44.788;10.366;2023-02-21T06:23:35;16.60;63.60
44477;DHT22;30180;44.788;10.366;2023-02-21T06:26:04;16.60;63.60
44477;DHT22;30180;44.788;10.366;2023-02-21T06:28:33;16.60;63.60
44477;DHT22;30180;44.788;10.366;2023-02-21T06:31:02;16.60;63.60
44477;DHT22;30180;44.788;10.366;2023-02-21T06:33:31;16.60;63.60
44477;DHT22;30180;44.788;10.366;2023-02-21T06:36:03;16.60;63.60
44477;DHT22;30180;44.788;10.366;2023-02-21T06:38:32;16.60;63.60
44477;DHT22;30180;44.788;10.366;2023-02-21T06:41:03;16.60;63.60
44477;DHT22;30180;44.788;10.366;2023-02-21T06:43:33;16.60;63.60
44477;DHT22;30180;44.788;10.366;2023-02-21T06:46:02;16.60;63.60
44477;DHT22;30180;44.788;10.366;2023-02-21T06:48:31;16.60;63.60
44477;DHT22;30180;44.788;10.366;2023-02-21T06:50:59;16.60;63.60
44477;DHT22;30180;44.788;10.366;2023-02-21T06:53:27;16.60;63.60
44477;DHT22;30180;44.788;10.366;2023-02-21T06:55:55;16.60;63.60
44477;DHT22;30180;44.788;10.366;2023-02-21T06:58:24;16.60;63.60
44477;DHT22;30180;44.788;10.366;2023-02-21T07:00:54;16.60;63.60
44477;DHT22;30180;44.788;10.366;2023-02-21T07:03:24;16.50;63.50
44477;DHT22;30180;44.788;10.366;2023-02-21T07:05:52;16.50;63.50
44477;DHT22;30180;44.788;10.366;2023-02-21T07:08:20;16.50;63.50
44477;DHT22;30180;44.788;10.366;2023-02-21T07:10:49;16.50;63.50
44477;DHT22;30180;44.788;10.366;2023-02-21T07:13:17;16.60;63.60
44477;DHT22;30180;44.788;10.366;2023-02-21T07:15:48;16.60;63.60
44477;DHT22;30180;44.788;10.366;2023-02-21T07:18:17;16.60;63.60
44477;DHT22;30180;44.788;10.366;2023-02-21T07:20:46;16.60;63.50
44477;DHT22;30180;44.788;10.366;2023-02-21T07:23:15;16.60;63.50
44477;DHT22;30180;44.788;10.366;2023-02-21T07:25:43;16.50;63.40
44477;DHT22;30180;44.788;10.366;2023-02-21T07:28:11;16.50;63.40
44477;DHT22;30180;44.788;10.366;2023-02-21T07:30:40;16.50;63.40
44477;DHT22;30180;44.788;10.366;2023-02-21T07:33:08;16.50;63.40
44477;DHT22;30180;44.788;10.366;2023-02-21T07:35:37;16.50;63.50
44477;DHT22;30180;44.788;10.366;2023-02-21T07:38:06;16.50;63.40
44477;DHT22;30180;44.788;10.366;2023-02-21T07:40:34;16.50;63.50
44477;DHT22;30180;44.788;10.366;2023-02-21T07:43:02;16.50;63.40
44477;DHT22;30180;44.788;10.366;2023-02-21T07:45:30;16.50;63.40
44477;DHT22;30180;44.788;10.366;2023-02-21T07:47:59;16.50;63.40
44477;DHT22;30180;44.788;10.366;2023-02-21T07:50:27;16.50;63.40
44477;DHT22;30180;44.788;10.366;2023-02-21T07:52:57;16.50;63.40
44477;DHT22;30180;44.788;10.366;2023-02-21T07:55:25;16.50;63.40
44477;DHT22;30180;44.788;10.366;2023-02-21T07:57:53;16.50;63.40
44477;DHT22;30180;44.788;10.366;2023-02-21T08:00:22;16.50;63.40
44477;DHT22;30180;44.788;10.366;2023-02-21T08:02:51;16.50;63.40
44477;DHT22;30180;44.788;10.366;2023-02-21T08:05:20;16.50;63.40
44477;DHT22;30180;44.788;10.366;2023-02-21T08:07:49;16.50;63.40
44477;DHT22;30180;44.788;10.366;2023-02-21T08:10:22;16.50;63.40
44477;DHT22;30180;44.788;10.366;2023-02-21T08:12:51;16.50;63.40
44477;DHT22;30180;44.788;10.366;2023-02-21T08:15:20;16.50;63.40
44477;DHT22;30180;44.788;10.366;2023-02-21T08:17:49;16.50;63.40
44477;DHT22;30180;44.788;10.366;2023-02-21T08:20:18;16.50;63.40
44477;DHT22;30180;44.788;10.366;2023-02-21T08:22:46;16.40;63.40
44477;DHT22;30180;44.788;10.366;2023-02-21T08:25:15;16.50;63.40
44477;DHT22;30180;44.788;10.366;2023-02-21T08:27:45;16.40;63.30
44477;DHT22;30180;44.788;10.366;2023-02-21T08:30:19;16.40;63.30
44477;DHT22;30180;44.788;10.366;2023-02-21T08:32:47;16.40;63.30
44477;DHT22;30180;44.788;10.366;2023-02-21T08:35:18;16.40;63.30
44477;DHT22;30180;44.788;10.366;2023-02-21T08:37:48;16.40;63.30
44477;DHT22;30180;44.788;10.366;2023-02-21T08:40:18;16.40;63.30
44477;DHT22;30180;44.788;10.366;2023-02-21T08:42:50;16.40;63.30
44477;DHT22;30180;44.788;10.366;2023-02-21T08:45:20;16.40;63.30
44477;DHT22;30180;44.788;10.366;2023-02-21T08:47:49;16.40;63.30
44477;DHT22;30180;44.788;10.366;2023-02-21T08:50:18;16.40;63.30
44477;DHT22;30180;44.788;10.366;2023-02-21T08:52:47;16.40;63.30
44477;DHT22;30180;44.788;10.366;2023-02-21T08:55:16;16.40;63.30
44477;DHT22;30180;44.788;10.366;2023-02-21T08:57:47;16.40;63.30
44477;DHT22;30180;44.788;10.366;2023-02-21T09:00:18;16.40;63.30
44477;DHT22;30180;44.788;10.366;2023-02-21T09:02:49;16.40;63.30
44477;DHT22;30180;44.788;10.366;2023-02-21T09:05:20;16.40;63.30
44477;DHT22;30180;44.788;10.366;2023-02-21T09:07:50;16.40;63.90
44477;DHT22;30180;44.788;10.366;2023-02-21T09:10:21;16.40;63.30
44477;DHT22;30180;44.788;10.366;2023-02-21T09:12:49;16.40;63.30
44477;DHT22;30180;44.788;10.366;2023-02-21T09:15:19;16.40;63.30
44477;DHT22;30180;44.788;10.366;2023-02-21T09:17:47;16.40;63.30
44477;DHT22;30180;44.788;10.366;2023-02-21T09:20:18;16.40;63.30
44477;DHT22;30180;44.788;10.366;2023-02-21T09:22:47;16.40;63.30
44477;DHT22;30180;44.788;10.366;2023-02-21T09:25:18;16.40;63.30
44477;DHT22;30180;44.788;10.366;2023-02-21T09:27:47;16.40;63.20
44477;DHT22;30180;44.788;10.366;2023-02-21T09:30:17;16.40;63.20
44477;DHT22;30180;44.788;10.366;2023-02-21T09:32:49;16.30;63.20
44477;DHT22;30180;44.788;10.366;2023-02-21T09:35:18;16.30;63.20
44477;DHT22;30180;44.788;10.366;2023-02-21T09:37:46;16.30;63.20
44477;DHT22;30180;44.788;10.366;2023-02-21T09:40:20;16.30;63.20
44477;DHT22;30180;44.788;10.366;2023-02-21T09:42:53;16.30;63.20
44477;DHT22;30180;44.788;10.366;2023-02-21T09:45:22;16.30;63.20
44477;DHT22;30180;44.788;10.366;2023-02-21T09:47:53;16.30;63.20
44477;DHT22;30180;44.788;10.366;2023-02-21T09:50:26;16.30;63.10
44477;DHT22;30180;44.788;10.366;2023-02-21T09:52:58;16.30;63.20
44477;DHT22;30180;44.788;10.366;2023-02-21T09:55:28;16.30;63.20
44477;DHT22;30180;44.788;10.366;2023-02-21T09:57:58;16.30;63.20
44477;DHT22;30180;44.788;10.366;2023-02-21T10:00:31;16.30;63.20
44477;DHT22;30180;44.788;10.366;2023-02-21T10:03:14;16.30;63.20
44477;DHT22;30180;44.788;10.366;2023-02-21T10:05:49;16.30;63.20
44477;DHT22;30180;44.788;10.366;2023-02-21T10:08:25;16.30;63.20
44477;DHT22;30180;44.788;10.366;2023-02-21T10:11:09;16.30;63.10
44477;DHT22;30180;44.788;10.366;2023-02-21T10:13:52;16.30;63.20
44477;DHT22;30180;44.788;10.366;2023-02-21T10:16:26;16.30;63.20
44477;DHT22;30180;44.788;10.366;2023-02-21T10:19:02;16.30;63.20
44477;DHT22;30180;44.788;10.366;2023-02-21T10:21:34;16.30;63.20
44477;DHT22;30180;44.788;10.366;2023-02-21T10:24:11;16.30;63.20
44477;DHT22;30180;44.788;10.366;2023-02-21T10:26:43;16.30;63.20
44477;DHT22;30180;44.788;10.366;2023-02-21T10:29:21;16.30;63.30
44477;DHT22;30180;44.788;10.366;2023-02-21T10:31:53;16.30;63.30
44477;DHT22;30180;44.788;10.366;2023-02-21T10:34:26;16.30;63.20
44477;DHT22;30180;44.788;10.366;2023-02-21T10:36:56;16.30;63.30
44477;DHT22;30180;44.788;10.366;2023-02-21T10:39:34;16.30;63.30
44477;DHT22;30180;44.788;10.366;2023-02-21T10:42:09;16.30;63.30
44477;DHT22;30180;44.788;10.366;2023-02-21T10:44:40;16.40;64.00
44477;DHT22;30180;44.788;10.366;2023-02-21T10:47:14;16.40;63.30
44477;DHT22;30180;44.788;10.366;2023-02-21T10:49:51;16.40;63.30
44477;DHT22;30180;44.788;10.366;2023-02-21T10:52:21;16.40;63.30
44477;DHT22;30180;44.788;10.366;2023-02-21T10:55:00;16.40;63.30
44477;DHT22;30180;44.788;10.366;2023-02-21T10:57:31;16.40;63.40
44477;DHT22;30180;44.788;10.366;2023-02-21T11:00:01;16.40;63.40
44477;DHT22;30180;44.788;10.366;2023-02-21T11:02:37;16.40;63.30
44477;DHT22;30180;44.788;10.366;2023-02-21T11:05:14;16.40;63.40
44477;DHT22;30180;44.788;10.366;2023-02-21T11:07:56;16.50;63.40
44477;DHT22;30180;44.788;10.366;2023-02-21T11:10:30;16.50;63.40
44477;DHT22;30180;44.788;10.366;2023-02-21T11:13:12;16.50;63.50
44477;DHT22;30180;44.788;10.366;2023-02-21T11:15:41;16.50;63.40
44477;DHT22;30180;44.788;10.366;2023-02-21T11:18:16;16.50;63.40
44477;DHT22;30180;44.788;10.366;2023-02-21T11:20:46;16.50;63.50
44477;DHT22;30180;44.788;10.366;2023-02-21T11:23:23;16.50;63.50
44477;DHT22;30180;44.788;10.366;2023-02-21T11:25:58;16.50;63.40
44477;DHT22;30180;44.788;10.366;2023-02-21T11:28:27;16.60;63.50
44477;DHT22;30180;44.788;10.366;2023-02-21T11:31:10;16.60;63.40
44477;DHT22;30180;44.788;10.366;2023-02-21T11:33:43;16.50;63.40
44477;DHT22;30180;44.788;10.366;2023-02-21T11:36:18;16.60;63.50
44477;DHT22;30180;44.788;10.366;2023-02-21T11:39:04;16.50;63.40
44477;DHT22;30180;44.788;10.366;2023-02-21T11:41:36;16.60;63.50
44477;DHT22;30180;44.788;10.366;2023-02-21T11:44:24;16.60;63.40
44477;DHT22;30180;44.788;10.366;2023-02-21T11:47:07;16.60;63.40
44477;DHT22;30180;44.788;10.366;2023-02-21T11:49:46;16.60;63.40
44477;DHT22;30180;44.788;10.366;2023-02-21T11:52:22;16.60;63.40
44477;DHT22;30180;44.788;10.366;2023-02-21T11:54:51;16.60;63.40
44477;DHT22;30180;44.788;10.366;2023-02-21T11:57:24;16.60;63.40
44477;DHT22;30180;44.788;10.366;2023-02-21T12:00:02;16.60;63.40
44477;DHT22;30180;44.788;10.366;2023-02-21T12:02:57;16.60;63.40
44477;DHT22;30180;44.788;10.366;2023-02-21T12:05:47;16.60;63.40
44477;DHT22;30180;44.788;10.366;2023-02-21T12:08:38;16.60;63.40
44477;DHT22;30180;44.788;10.366;2023-02-21T12:11:24;16.60;63.40
44477;DHT22;30180;44.788;10.366;2023-02-21T12:14:07;16.60;63.40
44477;DHT22;30180;44.788;10.366;2023-02-21T12:16:48;16.60;63.40
44477;DHT22;30180;44.788;10.366;2023-02-21T12:19:29;16.60;63.40
44477;DHT22;30180;44.788;10.366;2023-02-21T12:22:09;16.60;63.40
44477;DHT22;30180;44.788;10.366;2023-02-21T12:24:49;16.60;63.40
44477;DHT22;30180;44.788;10.366;2023-02-21T12:27:28;16.60;63.40
44477;DHT22;30180;44.788;10.366;2023-02-21T12:30:24;16.60;63.40
44477;DHT22;30180;44.788;10.366;2023-02-21T12:33:01;16.60;63.40
44477;DHT22;30180;44.788;10.366;2023-02-21T12:36:01;16.60;63.40
44477;DHT22;30180;44.788;10.366;2023-02-21T12:38:45;16.50;63.30
44477;DHT22;30180;44.788;10.366;2023-02-21T12:41:26;16.50;63.30
44477;DHT22;30180;44.788;10.366;2023-02-21T12:44:03;16.60;63.40
44477;DHT22;30180;44.788;10.366;2023-02-21T12:46:37;16.50;63.30
44477;DHT22;30180;44.788;10.366;2023-02-21T12:49:11;16.60;63.40
44477;DHT22;30180;44.788;10.366;2023-02-21T12:51:44;16.60;63.40
44477;DHT22;30180;44.788;10.366;2023-02-21T12:54:16;16.50;63.30
44477;DHT22;30180;44.788;10.366;2023-02-21T12:56:51;16.60;63.40
44477;DHT22;30180;44.788;10.366;2023-02-21T12:59:28;16.60;63.40
44477;DHT22;30180;44.788;10.366;2023-02-21T13:02:02;16.60;63.40
44477;DHT22;30180;44.788;10.366;2023-02-21T13:04:37;16.50;63.30
44477;DHT22;30180;44.788;10.366;2023-02-21T13:07:13;16.50;63.30
44477;DHT22;30180;44.788;10.366;2023-02-21T13:09:58;16.50;63.30
44477;DHT22;30180;44.788;10.366;2023-02-21T13:12:32;16.60;63.40
44477;DHT22;30180;44.788;10.366;2023-02-21T13:15:14;16.50;63.30
44477;DHT22;30180;44.788;10.366;2023-02-21T13:17:50;16.50;63.30
44477;DHT22;30180;44.788;10.366;2023-02-21T13:20:21;16.50;63.30
44477;DHT22;30180;44.788;10.366;2023-02-21T13:26:30;16.50;63.30
44477;DHT22;30180;44.788;10.366;2023-02-21T13:29:03;16.50;63.30
44477;DHT22;30180;44.788;10.366;2023-02-21T13:31:41;16.50;63.30
44477;DHT22;30180;44.788;10.366;2023-02-21T13:34:16;16.50;63.30
44477;DHT22;30180;44.788;10.366;2023-02-21T13:36:46;16.50;63.30
44477;DHT22;30180;44.788;10.366;2023-02-21T13:39:17;16.50;63.30
44477;DHT22;30180;44.788;10.366;2023-02-21T13:41:51;16.50;63.30
44477;DHT22;30180;44.788;10.366;2023-02-21T13:44:25;16.50;63.90
44477;DHT22;30180;44.788;10.366;2023-02-21T13:47:10;16.50;63.30
44477;DHT22;30180;44.788;10.366;2023-02-21T13:50:00;16.50;63.30
44477;DHT22;30180;44.788;10.366;2023-02-21T13:53:00;16.50;63.30
44477;DHT22;30180;44.788;10.366;2023-02-21T13:55:30;16.50;63.30
44477;DHT22;30180;44.788;10.366;2023-02-21T14:07:09;16.50;63.30
44477;DHT22;30180;44.788;10.366;2023-02-21T14:09:39;16.40;63.20
44477;DHT22;30180;44.788;10.366;2023-02-21T14:12:09;16.40;63.20
44477;DHT22;30180;44.788;10.366;2023-02-21T14:14:41;16.40;63.30
44477;DHT22;30180;44.788;10.366;2023-02-21T14:17:13;16.40;63.30
44477;DHT22;30180;44.788;10.366;2023-02-21T14:19:46;16.40;63.30
44477;DHT22;30180;44.788;10.366;2023-02-21T14:22:17;16.40;63.20
44477;DHT22;30180;44.788;10.366;2023-02-21T14:24:50;16.40;63.30
44477;DHT22;30180;44.788;10.366;2023-02-21T14:27:33;16.40;63.30
44477;DHT22;30180;44.788;10.366;2023-02-21T14:30:27;16.40;63.30
44477;DHT22;30180;44.788;10.366;2023-02-21T14:33:13;16.40;63.30
44477;DHT22;30180;44.788;10.366;2023-02-21T14:35:55;16.40;63.30
44477;DHT22;30180;44.788;10.366;2023-02-21T14:38:27;16.40;63.30
44477;DHT22;30180;44.788;10.366;2023-02-21T14:41:09;16.40;63.30
44477;DHT22;30180;44.788;10.366;2023-02-21T14:43:50;16.40;63.30
44477;DHT22;30180;44.788;10.366;2023-02-21T14:49:51;16.40;63.30
44477;DHT22;30180;44.788;10.366;2023-02-21T14:55:49;16.40;63.30
44477;DHT22;30180;44.788;10.366;2023-02-21T14:58:42;16.40;63.30
44477;DHT22;30180;44.788;10.366;2023-02-21T15:01:20;16.40;63.30
44477;DHT22;30180;44.788;10.366;2023-02-21T15:03:59;16.30;63.20
44477;DHT22;30180;44.788;10.366;2023-02-21T15:06:31;16.40;63.30
44477;DHT22;30180;44.788;10.366;2023-02-21T15:09:01;16.40;63.30
44477;DHT22;30180;44.788;10.366;2023-02-21T15:11:38;16.40;63.30
44477;DHT22;30180;44.788;10.366;2023-02-21T15:14:12;16.40;63.30
44477;DHT22;30180;44.788;10.366;2023-02-21T15:16:43;16.40;63.20
44477;DHT22;30180;44.788;10.366;2023-02-21T15:19:28;16.30;63.20
44477;DHT22;30180;44.788;10.366;2023-02-21T15:22:17;16.40;63.30
44477;DHT22;30180;44.788;10.366;2023-02-21T15:25:11;16.40;63.30
44477;DHT22;30180;44.788;10.366;2023-02-21T15:27:59;16.30;63.30
44477;DHT22;30180;44.788;10.366;2023-02-21T15:30:34;16.40;63.30
44477;DHT22;30180;44.788;10.366;2023-02-21T15:33:20;16.40;63.30
44477;DHT22;30180;44.788;10.366;2023-02-21T15:35:52;16.40;63.40
44477;DHT22;30180;44.788;10.366;2023-02-21T15:38:28;16.40;63.40
44477;DHT22;30180;44.788;10.366;2023-02-21T15:41:02;16.40;63.40
44477;DHT22;30180;44.788;10.366;2023-02-21T15:43:42;16.40;63.40
44477;DHT22;30180;44.788;10.366;2023-02-21T15:46:15;16.40;63.40
44477;DHT22;30180;44.788;10.366;2023-02-21T15:48:45;16.50;63.50
44477;DHT22;30180;44.788;10.366;2023-02-21T15:51:14;16.40;63.40
44477;DHT22;30180;44.788;10.366;2023-02-21T15:54:09;16.50;63.50
44477;DHT22;30180;44.788;10.366;2023-02-21T15:56:38;16.50;63.50
44477;DHT22;30180;44.788;10.366;2023-02-21T15:59:18;16.50;63.60
44477;DHT22;30180;44.788;10.366;2023-02-21T16:02:14;16.50;63.50
44477;DHT22;30180;44.788;10.366;2023-02-21T16:04:44;16.50;63.50
44477;DHT22;30180;44.788;10.366;2023-02-21T16:07:17;16.50;63.50
44477;DHT22;30180;44.788;10.366;2023-02-21T16:09:50;16.60;63.60
44477;DHT22;30180;44.788;10.366;2023-02-21T16:12:33;16.50;63.50
44477;DHT22;30180;44.788;10.366;2023-02-21T16:15:05;16.60;63.60
44477;DHT22;30180;44.788;10.366;2023-02-21T16:17:36;16.60;63.60
44477;DHT22;30180;44.788;10.366;2023-02-21T16:20:14;16.60;63.60
44477;DHT22;30180;44.788;10.366;2023-02-21T16:22:45;16.60;63.60
44477;DHT22;30180;44.788;10.366;2023-02-21T16:25:53;16.60;63.60
44477;DHT22;30180;44.788;10.366;2023-02-21T16:28:22;16.60;63.60
44477;DHT22;30180;44.788;10.366;2023-02-21T16:30:50;16.60;63.60